sensor_id;sensor_type;location;lat;lon;timestamp;temperature;humidity
871;DHT22;422;51.280;7.236;2022-07-17T00:00:25;13.40;99.90
871;DHT22;422;51.280;7.236;2022-07-17T00:02:53;13.30;99.90
871;DHT22;422;51.280;7.236;2022-07-17T00:05:21;13.20;99.90
871;DHT22;422;51.280;7.236;2022-07-17T00:07:54;13.20;99.90
871;DHT22;422;51.280;7.236;2022-07-17T00:10:24;13.20;99.90
871;DHT22;422;51.280;7.236;2022-07-17T00:12:52;13.20;99.90
871;DHT22;422;51.280;7.236;2022-07-17T00:15:21;13.10;99.90
871;DHT22;422;51.280;7.236;2022-07-17T00:17:49;13.10;99.90
871;DHT22;422;51.280;7.236;2022-07-17T00:20:29;13.00;99.90
871;DHT22;422;51.280;7.236;2022-07-17T00:22:58;13.00;99.90
871;DHT22;422;51.280;7.236;2022-07-17T00:25:25;13.00;99.90
871;DHT22;422;51.280;7.236;2022-07-17T00:27:53;13.00;99.90
871;DHT22;422;51.280;7.236;2022-07-17T00:30:23;12.90;99.90
871;DHT22;422;51.280;7.236;2022-07-17T00:32:50;12.90;99.90
871;DHT22;422;51.280;7.236;2022-07-17T00:35:18;12.70;99.90
871;DHT22;422;51.280;7.236;2022-07-17T00:37:47;12.60;99.90
871;DHT22;422;51.280;7.236;2022-07-17T00:40:20;12.60;99.90
871;DHT22;422;51.280;7.236;2022-07-17T00:42:48;12.60;99.90
871;DHT22;422;51.280;7.236;2022-07-17T00:45:16;12.60;99.90
871;DHT22;422;51.280;7.236;2022-07-17T00:47:53;12.60;99.90
871;DHT22;422;51.280;7.236;2022-07-17T00:50:21;12.50;99.90
871;DHT22;422;51.280;7.236;2022-07-17T00:52:51;12.40;99.90
871;DHT22;422;51.280;7.236;2022-07-17T00:55:22;12.50;99.90
871;DHT22;422;51.280;7.236;2022-07-17T00:57:50;12.50;99.90
871;DHT22;422;51.280;7.236;2022-07-17T01:00:18;12.40;99.90
871;DHT22;422;51.280;7.236;2022-07-17T01:02:49;12.20;99.90
871;DHT22;422;51.280;7.236;2022-07-17T01:05:17;12.30;99.90
871;DHT22;422;51.280;7.236;2022-07-17T01:07:48;12.30;99.90
871;DHT22;422;51.280;7.236;2022-07-17T01:10:23;12.30;99.90
871;DHT22;422;51.280;7.236;2022-07-17T01:12:55;12.20;99.90
871;DHT22;422;51.280;7.236;2022-07-17T01:15:25;12.10;99.90
871;DHT22;422;51.280;7.236;2022-07-17T01:17:53;12.10;99.90
871;DHT22;422;51.280;7.236;2022-07-17T01:20:21;12.10;99.90
871;DHT22;422;51.280;7.236;2022-07-17T01:22:51;12.00;99.90
871;DHT22;422;51.280;7.236;2022-07-17T01:25:24;12.00;99.90
871;DHT22;422;51.280;7.236;2022-07-17T01:27:53;12.00;99.90
871;DHT22;422;51.280;7.236;2022-07-17T01:30:21;12.00;99.90
871;DHT22;422;51.280;7.236;2022-07-17T01:32:50;12.00;99.90
871;DHT22;422;51.280;7.236;2022-07-17T01:35:19;12.00;99.90
871;DHT22;422;51.280;7.236;2022-07-17T01:37:48;12.00;99.90
871;DHT22;422;51.280;7.236;2022-07-17T01:40:17;12.00;99.90
871;DHT22;422;51.280;7.236;2022-07-17T01:42:47;12.00;99.90
871;DHT22;422;51.280;7.236;2022-07-17T01:45:16;11.90;99.90
871;DHT22;422;51.280;7.236;2022-07-17T01:47:47;11.80;99.90
871;DHT22;422;51.280;7.236;2022-07-17T01:50:15;11.80;99.90
871;DHT22;422;51.280;7.236;2022-07-17T01:52:45;11.80;99.90
871;DHT22;422;51.280;7.236;2022-07-17T01:55:15;11.80;99.90
871;DHT22;422;51.280;7.236;2022-07-17T01:57:45;11.70;99.90
871;DHT22;422;51.280;7.236;2022-07-17T02:00:16;11.70;99.90
871;DHT22;422;51.280;7.236;2022-07-17T02:02:45;11.70;99.90
871;DHT22;422;51.280;7.236;2022-07-17T02:05:13;11.70;99.90
871;DHT22;422;51.280;7.236;2022-07-17T02:07:40;11.50;99.90
871;DHT22;422;51.280;7.236;2022-07-17T02:10:11;11.40;99.90
871;DHT22;422;51.280;7.236;2022-07-17T02:12:41;11.30;99.90
871;DHT22;422;51.280;7.236;2022-07-17T02:15:09;11.20;99.90
871;DHT22;422;51.280;7.236;2022-07-17T02:17:41;11.20;99.90
871;DHT22;422;51.280;7.236;2022-07-17T02:20:09;11.20;99.90
871;DHT22;422;51.280;7.236;2022-07-17T02:22:37;11.20;99.90
871;DHT22;422;51.280;7.236;2022-07-17T02:25:10;11.20;99.90
871;DHT22;422;51.280;7.236;2022-07-17T02:27:41;11.20;99.90
871;DHT22;422;51.280;7.236;2022-07-17T02:30:10;11.20;99.90
871;DHT22;422;51.280;7.236;2022-07-17T02:32:39;11.10;99.90
871;DHT22;422;51.280;7.236;2022-07-17T02:35:10;11.10;99.90
871;DHT22;422;51.280;7.236;2022-07-17T02:37:40;11.10;99.90
871;DHT22;422;51.280;7.236;2022-07-17T02:40:10;11.10;99.90
871;DHT22;422;51.280;7.236;2022-07-17T02:42:41;11.10;99.90
871;DHT22;422;51.280;7.236;2022-07-17T02:45:09;11.00;99.90
871;DHT22;422;51.280;7.236;2022-07-17T02:47:38;11.00;99.90
871;DHT22;422;51.280;7.236;2022-07-17T02:50:09;11.00;99.90
871;DHT22;422;51.280;7.236;2022-07-17T02:52:37;10.90;99.90
871;DHT22;422;51.280;7.236;2022-07-17T02:55:05;10.90;99.90
871;DHT22;422;51.280;7.236;2022-07-17T02:57:32;10.90;99.90
871;DHT22;422;51.280;7.236;2022-07-17T03:00:11;10.90;99.90
871;DHT22;422;51.280;7.236;2022-07-17T03:02:39;11.00;99.90
871;DHT22;422;51.280;7.236;2022-07-17T03:05:08;11.00;99.90
871;DHT22;422;51.280;7.236;2022-07-17T03:07:35;10.80;99.90
871;DHT22;422;51.280;7.236;2022-07-17T03:10:04;10.70;99.90
871;DHT22;422;51.280;7.236;2022-07-17T03:12:32;10.70;99.90
871;DHT22;422;51.280;7.236;2022-07-17T03:15:02;10.70;99.90
871;DHT22;422;51.280;7.236;2022-07-17T03:17:34;10.70;99.90
871;DHT22;422;51.280;7.236;2022-07-17T03:20:02;10.70;99.90
871;DHT22;422;51.280;7.236;2022-07-17T03:22:29;10.70;99.90
871;DHT22;422;51.280;7.236;2022-07-17T03:24:56;10.60;99.90
871;DHT22;422;51.280;7.236;2022-07-17T03:27:24;10.70;99.90
871;DHT22;422;51.280;7.236;2022-07-17T03:29:52;10.70;99.90
871;DHT22;422;51.280;7.236;2022-07-17T03:32:19;10.60;99.90
871;DHT22;422;51.280;7.236;2022-07-17T03:34:49;10.60;99.90
871;DHT22;422;51.280;7.236;2022-07-17T03:37:16;10.60;99.90
871;DHT22;422;51.280;7.236;2022-07-17T03:39:43;10.60;99.90
871;DHT22;422;51.280;7.236;2022-07-17T03:42:11;10.60;99.90
871;DHT22;422;51.280;7.236;2022-07-17T03:44:40;10.60;99.90
871;DHT22;422;51.280;7.236;2022-07-17T03:47:10;10.60;99.90
871;DHT22;422;51.280;7.236;2022-07-17T03:49:37;10.60;99.90
871;DHT22;422;51.280;7.236;2022-07-17T03:52:06;10.70;99.90
871;DHT22;422;51.280;7.236;2022-07-17T03:54:34;10.60;99.90
871;DHT22;422;51.280;7.236;2022-07-17T03:57:04;10.60;99.90
871;DHT22;422;51.280;7.236;2022-07-17T03:59:31;10.60;99.90
871;DHT22;422;51.280;7.236;2022-07-17T04:02:01;10.60;99.90
871;DHT22;422;51.280;7.236;2022-07-17T04:04:28;10.60;99.90
871;DHT22;422;51.280;7.236;2022-07-17T04:06:55;10.60;99.90
871;DHT22;422;51.280;7.236;2022-07-17T04:09:24;10.60;99.90
871;DHT22;422;51.280;7.236;2022-07-17T04:11:51;10.50;99.90
871;DHT22;422;51.280;7.236;2022-07-17T04:14:19;10.50;99.90
871;DHT22;422;51.280;7.236;2022-07-17T04:16:46;10.50;99.90
871;DHT22;422;51.280;7.236;2022-07-17T04:19:15;10.60;99.90
871;DHT22;422;51.280;7.236;2022-07-17T04:21:43;10.50;99.90
871;DHT22;422;51.280;7.236;2022-07-17T04:24:10;10.60;99.90
871;DHT22;422;51.280;7.236;2022-07-17T04:26:43;10.60;99.90
871;DHT22;422;51.280;7.236;2022-07-17T04:29:11;10.50;99.90
871;DHT22;422;51.280;7.236;2022-07-17T04:31:38;10.60;99.90
871;DHT22;422;51.280;7.236;2022-07-17T04:34:05;10.60;99.90
871;DHT22;422;51.280;7.236;2022-07-17T04:36:35;10.60;99.90
871;DHT22;422;51.280;7.236;2022-07-17T04:39:02;10.70;99.90
871;DHT22;422;51.280;7.236;2022-07-17T04:41:31;10.80;99.90
871;DHT22;422;51.280;7.236;2022-07-17T04:44:03;10.90;99.90
871;DHT22;422;51.280;7.236;2022-07-17T04:46:30;10.90;99.90
871;DHT22;422;51.280;7.236;2022-07-17T04:48:58;11.00;99.90
871;DHT22;422;51.280;7.236;2022-07-17T04:51:25;11.20;99.90
871;DHT22;422;51.280;7.236;2022-07-17T04:53:52;11.30;99.90
871;DHT22;422;51.280;7.236;2022-07-17T04:56:21;11.30;99.90
871;DHT22;422;51.280;7.236;2022-07-17T04:58:50;11.20;99.90
871;DHT22;422;51.280;7.236;2022-07-17T05:01:22;11.30;99.90
871;DHT22;422;51.280;7.236;2022-07-17T05:03:52;11.50;99.90
871;DHT22;422;51.280;7.236;2022-07-17T05:06:19;11.60;99.90
871;DHT22;422;51.280;7.236;2022-07-17T05:08:46;11.60;99.90
871;DHT22;422;51.280;7.236;2022-07-17T05:11:14;11.70;99.90
871;DHT22;422;51.280;7.236;2022-07-17T05:13:41;11.80;99.90
871;DHT22;422;51.280;7.236;2022-07-17T05:16:09;11.90;99.90
871;DHT22;422;51.280;7.236;2022-07-17T05:18:38;12.00;99.90
871;DHT22;422;51.280;7.236;2022-07-17T05:21:05;12.00;99.90
871;DHT22;422;51.280;7.236;2022-07-17T05:23:33;11.90;99.90
871;DHT22;422;51.280;7.236;2022-07-17T05:26:00;12.00;99.90
871;DHT22;422;51.280;7.236;2022-07-17T05:28:27;12.10;99.90
871;DHT22;422;51.280;7.236;2022-07-17T05:30:57;12.30;99.90
871;DHT22;422;51.280;7.236;2022-07-17T05:33:25;12.40;99.90
871;DHT22;422;51.280;7.236;2022-07-17T05:36:00;12.60;99.90
871;DHT22;422;51.280;7.236;2022-07-17T05:38:28;12.70;99.90
871;DHT22;422;51.280;7.236;2022-07-17T05:40:55;12.90;99.90
871;DHT22;422;51.280;7.236;2022-07-17T05:43:22;13.10;99.90
871;DHT22;422;51.280;7.236;2022-07-17T05:45:53;13.30;99.90
871;DHT22;422;51.280;7.236;2022-07-17T05:48:20;13.50;99.90
871;DHT22;422;51.280;7.236;2022-07-17T05:50:48;13.60;99.90
871;DHT22;422;51.280;7.236;2022-07-17T05:53:17;13.80;99.90
871;DHT22;422;51.280;7.236;2022-07-17T05:55:44;14.10;99.90
871;DHT22;422;51.280;7.236;2022-07-17T05:58:12;14.40;99.90
871;DHT22;422;51.280;7.236;2022-07-17T06:00:43;14.60;99.90
871;DHT22;422;51.280;7.236;2022-07-17T06:03:13;14.90;99.90
871;DHT22;422;51.280;7.236;2022-07-17T06:05:42;15.20;99.90
871;DHT22;422;51.280;7.236;2022-07-17T06:08:11;15.60;99.90
871;DHT22;422;51.280;7.236;2022-07-17T06:10:40;15.90;99.90
871;DHT22;422;51.280;7.236;2022-07-17T06:13:08;16.10;99.90
871;DHT22;422;51.280;7.236;2022-07-17T06:15:35;16.40;99.90
871;DHT22;422;51.280;7.236;2022-07-17T06:18:07;16.80;99.90
871;DHT22;422;51.280;7.236;2022-07-17T06:20:34;17.10;99.90
871;DHT22;422;51.280;7.236;2022-07-17T06:23:05;17.30;99.90
871;DHT22;422;51.280;7.236;2022-07-17T06:25:33;17.40;99.90
871;DHT22;422;51.280;7.236;2022-07-17T06:28:04;17.90;99.90
871;DHT22;422;51.280;7.236;2022-07-17T06:30:32;18.40;99.90
871;DHT22;422;51.280;7.236;2022-07-17T06:33:02;18.60;99.90
871;DHT22;422;51.280;7.236;2022-07-17T06:35:30;18.90;99.90
871;DHT22;422;51.280;7.236;2022-07-17T06:37:59;19.30;99.90
871;DHT22;422;51.280;7.236;2022-07-17T06:40:27;19.70;99.90
871;DHT22;422;51.280;7.236;2022-07-17T06:42:54;20.00;99.90
871;DHT22;422;51.280;7.236;2022-07-17T06:45:24;20.20;99.90
871;DHT22;422;51.280;7.236;2022-07-17T06:47:54;20.00;99.90
871;DHT22;422;51.280;7.236;2022-07-17T06:50:22;20.30;99.90
871;DHT22;422;51.280;7.236;2022-07-17T06:52:49;20.70;99.90
871;DHT22;422;51.280;7.236;2022-07-17T06:55:16;20.60;99.90
871;DHT22;422;51.280;7.236;2022-07-17T06:57:44;20.80;99.90
871;DHT22;422;51.280;7.236;2022-07-17T07:00:14;21.30;99.90
871;DHT22;422;51.280;7.236;2022-07-17T07:02:47;21.60;99.90
871;DHT22;422;51.280;7.236;2022-07-17T07:05:15;21.90;99.90
871;DHT22;422;51.280;7.236;2022-07-17T07:07:43;22.20;99.90
871;DHT22;422;51.280;7.236;2022-07-17T07:10:13;22.40;99.90
871;DHT22;422;51.280;7.236;2022-07-17T07:12:40;22.30;99.90
871;DHT22;422;51.280;7.236;2022-07-17T07:15:08;22.70;99.90
871;DHT22;422;51.280;7.236;2022-07-17T07:17:36;23.00;99.90
871;DHT22;422;51.280;7.236;2022-07-17T07:20:11;23.10;99.90
871;DHT22;422;51.280;7.236;2022-07-17T07:22:45;23.40;99.90
871;DHT22;422;51.280;7.236;2022-07-17T07:25:12;23.50;99.90
871;DHT22;422;51.280;7.236;2022-07-17T07:27:39;23.80;99.90
871;DHT22;422;51.280;7.236;2022-07-17T07:30:08;23.80;99.90
871;DHT22;422;51.280;7.236;2022-07-17T07:32:43;22.60;99.90
871;DHT22;422;51.280;7.236;2022-07-17T07:35:14;22.90;99.90
871;DHT22;422;51.280;7.236;2022-07-17T07:37:41;23.30;99.90
871;DHT22;422;51.280;7.236;2022-07-17T07:40:10;23.70;99.90
871;DHT22;422;51.280;7.236;2022-07-17T07:42:39;23.80;99.90
871;DHT22;422;51.280;7.236;2022-07-17T07:45:07;23.60;99.90
871;DHT22;422;51.280;7.236;2022-07-17T07:47:43;23.80;99.90
871;DHT22;422;51.280;7.236;2022-07-17T07:50:18;24.30;99.90
871;DHT22;422;51.280;7.236;2022-07-17T07:52:46;24.50;99.90
871;DHT22;422;51.280;7.236;2022-07-17T07:55:14;24.70;99.90
871;DHT22;422;51.280;7.236;2022-07-17T07:57:42;25.20;99.90
871;DHT22;422;51.280;7.236;2022-07-17T08:00:11;24.90;99.90
871;DHT22;422;51.280;7.236;2022-07-17T08:02:39;25.10;99.90
871;DHT22;422;51.280;7.236;2022-07-17T08:05:07;25.20;99.90
871;DHT22;422;51.280;7.236;2022-07-17T08:07:39;25.50;99.90
871;DHT22;422;51.280;7.236;2022-07-17T08:10:10;24.70;99.90
871;DHT22;422;51.280;7.236;2022-07-17T08:12:40;24.90;99.90
871;DHT22;422;51.280;7.236;2022-07-17T08:15:10;24.40;99.90
871;DHT22;422;51.280;7.236;2022-07-17T08:17:37;24.60;99.90
871;DHT22;422;51.280;7.236;2022-07-17T08:20:06;25.50;99.90
871;DHT22;422;51.280;7.236;2022-07-17T08:22:35;24.10;99.90
871;DHT22;422;51.280;7.236;2022-07-17T08:25:09;24.90;99.90
871;DHT22;422;51.280;7.236;2022-07-17T08:27:40;25.60;99.90
871;DHT22;422;51.280;7.236;2022-07-17T08:30:12;26.00;99.90
871;DHT22;422;51.280;7.236;2022-07-17T08:32:39;26.50;99.90
871;DHT22;422;51.280;7.236;2022-07-17T08:35:09;26.50;99.90
871;DHT22;422;51.280;7.236;2022-07-17T08:37:44;25.70;99.90
871;DHT22;422;51.280;7.236;2022-07-17T08:40:18;25.70;99.90
871;DHT22;422;51.280;7.236;2022-07-17T08:42:46;26.10;99.90
871;DHT22;422;51.280;7.236;2022-07-17T08:45:20;25.80;99.90
871;DHT22;422;51.280;7.236;2022-07-17T08:47:48;25.40;99.90
871;DHT22;422;51.280;7.236;2022-07-17T08:50:22;24.80;99.90
871;DHT22;422;51.280;7.236;2022-07-17T08:52:50;25.50;99.90
871;DHT22;422;51.280;7.236;2022-07-17T08:55:20;25.90;99.90
871;DHT22;422;51.280;7.236;2022-07-17T08:57:51;26.20;99.90
871;DHT22;422;51.280;7.236;2022-07-17T09:00:21;26.70;99.90
871;DHT22;422;51.280;7.236;2022-07-17T09:02:54;26.40;99.90
871;DHT22;422;51.280;7.236;2022-07-17T09:05:22;26.40;99.90
871;DHT22;422;51.280;7.236;2022-07-17T09:07:52;26.80;99.90
871;DHT22;422;51.280;7.236;2022-07-17T09:10:35;26.90;99.90
871;DHT22;422;51.280;7.236;2022-07-17T09:13:15;26.70;99.90
871;DHT22;422;51.280;7.236;2022-07-17T09:15:43;26.30;99.90
871;DHT22;422;51.280;7.236;2022-07-17T09:18:17;25.80;99.90
871;DHT22;422;51.280;7.236;2022-07-17T09:20:50;26.10;99.90
871;DHT22;422;51.280;7.236;2022-07-17T09:23:19;27.30;99.90
871;DHT22;422;51.280;7.236;2022-07-17T09:25:49;28.00;99.90
871;DHT22;422;51.280;7.236;2022-07-17T09:28:18;27.90;99.90
871;DHT22;422;51.280;7.236;2022-07-17T09:30:50;27.30;99.90
871;DHT22;422;51.280;7.236;2022-07-17T09:33:21;26.30;99.90
871;DHT22;422;51.280;7.236;2022-07-17T09:35:52;27.00;99.90
871;DHT22;422;51.280;7.236;2022-07-17T09:38:27;27.50;99.90
871;DHT22;422;51.280;7.236;2022-07-17T09:41:08;26.70;99.90
871;DHT22;422;51.280;7.236;2022-07-17T09:43:43;26.70;99.90
871;DHT22;422;51.280;7.236;2022-07-17T09:46:14;27.60;99.90
871;DHT22;422;51.280;7.236;2022-07-17T09:48:46;28.10;99.90
871;DHT22;422;51.280;7.236;2022-07-17T09:51:21;27.20;99.90
871;DHT22;422;51.280;7.236;2022-07-17T09:53:50;27.10;99.90
871;DHT22;422;51.280;7.236;2022-07-17T09:56:24;28.00;99.90
871;DHT22;422;51.280;7.236;2022-07-17T09:58:54;28.40;99.90
871;DHT22;422;51.280;7.236;2022-07-17T10:01:24;28.40;99.90
871;DHT22;422;51.280;7.236;2022-07-17T10:03:55;28.00;99.90
871;DHT22;422;51.280;7.236;2022-07-17T10:06:24;28.20;99.90
871;DHT22;422;51.280;7.236;2022-07-17T10:08:53;28.90;99.90
871;DHT22;422;51.280;7.236;2022-07-17T10:11:25;29.00;99.90
871;DHT22;422;51.280;7.236;2022-07-17T10:13:55;29.70;99.90
871;DHT22;422;51.280;7.236;2022-07-17T10:16:25;30.10;99.90
871;DHT22;422;51.280;7.236;2022-07-17T10:18:55;29.70;99.90
871;DHT22;422;51.280;7.236;2022-07-17T10:21:24;29.60;99.90
871;DHT22;422;51.280;7.236;2022-07-17T10:24:06;30.20;99.90
871;DHT22;422;51.280;7.236;2022-07-17T10:26:39;30.50;99.90
871;DHT22;422;51.280;7.236;2022-07-17T10:29:07;28.30;99.90
871;DHT22;422;51.280;7.236;2022-07-17T10:31:35;28.90;99.90
871;DHT22;422;51.280;7.236;2022-07-17T10:34:05;28.20;99.90
871;DHT22;422;51.280;7.236;2022-07-17T10:36:39;29.10;99.90
871;DHT22;422;51.280;7.236;2022-07-17T10:39:14;28.80;99.90
871;DHT22;422;51.280;7.236;2022-07-17T10:41:56;29.20;99.90
871;DHT22;422;51.280;7.236;2022-07-17T10:44:27;30.10;99.90
871;DHT22;422;51.280;7.236;2022-07-17T10:46:56;28.40;99.90
871;DHT22;422;51.280;7.236;2022-07-17T10:49:30;28.40;99.90
871;DHT22;422;51.280;7.236;2022-07-17T10:51:57;29.10;99.90
871;DHT22;422;51.280;7.236;2022-07-17T10:54:33;29.40;99.90
871;DHT22;422;51.280;7.236;2022-07-17T10:57:03;28.20;99.90
871;DHT22;422;51.280;7.236;2022-07-17T10:59:30;28.10;99.90
871;DHT22;422;51.280;7.236;2022-07-17T11:01:57;27.80;99.90
871;DHT22;422;51.280;7.236;2022-07-17T11:04:36;27.60;99.90
871;DHT22;422;51.280;7.236;2022-07-17T11:07:06;28.80;99.90
871;DHT22;422;51.280;7.236;2022-07-17T11:09:33;28.80;99.90
871;DHT22;422;51.280;7.236;2022-07-17T11:12:03;29.10;99.90
871;DHT22;422;51.280;7.236;2022-07-17T11:14:30;30.00;99.90
871;DHT22;422;51.280;7.236;2022-07-17T11:17:00;30.60;99.90
871;DHT22;422;51.280;7.236;2022-07-17T11:19:29;28.90;99.90
871;DHT22;422;51.280;7.236;2022-07-17T11:21:57;29.40;99.90
871;DHT22;422;51.280;7.236;2022-07-17T11:24:34;29.00;99.90
871;DHT22;422;51.280;7.236;2022-07-17T11:27:03;28.90;99.90
871;DHT22;422;51.280;7.236;2022-07-17T11:29:38;29.30;99.90
871;DHT22;422;51.280;7.236;2022-07-17T11:32:12;30.40;99.90
871;DHT22;422;51.280;7.236;2022-07-17T11:34:40;30.70;99.90
871;DHT22;422;51.280;7.236;2022-07-17T11:37:08;31.40;99.90
871;DHT22;422;51.280;7.236;2022-07-17T11:39:39;31.70;99.90
871;DHT22;422;51.280;7.236;2022-07-17T11:42:12;31.30;99.90
871;DHT22;422;51.280;7.236;2022-07-17T11:44:40;31.20;99.90
871;DHT22;422;51.280;7.236;2022-07-17T11:47:11;31.10;99.90
871;DHT22;422;51.280;7.236;2022-07-17T11:49:41;28.80;99.90
871;DHT22;422;51.280;7.236;2022-07-17T11:52:12;29.30;99.90
871;DHT22;422;51.280;7.236;2022-07-17T11:54:47;30.00;99.90
871;DHT22;422;51.280;7.236;2022-07-17T11:57:19;30.80;99.90
871;DHT22;422;51.280;7.236;2022-07-17T11:59:47;29.70;99.90
871;DHT22;422;51.280;7.236;2022-07-17T12:02:15;29.70;99.90
871;DHT22;422;51.280;7.236;2022-07-17T12:04:50;29.70;99.90
871;DHT22;422;51.280;7.236;2022-07-17T12:07:23;30.10;99.90
871;DHT22;422;51.280;7.236;2022-07-17T12:09:54;31.00;99.90
871;DHT22;422;51.280;7.236;2022-07-17T12:12:25;30.30;99.90
871;DHT22;422;51.280;7.236;2022-07-17T12:14:56;29.90;99.90
871;DHT22;422;51.280;7.236;2022-07-17T12:17:37;29.40;99.90
871;DHT22;422;51.280;7.236;2022-07-17T12:20:15;29.40;99.90
871;DHT22;422;51.280;7.236;2022-07-17T12:22:48;30.00;99.90
871;DHT22;422;51.280;7.236;2022-07-17T12:25:24;30.90;99.90
871;DHT22;422;51.280;7.236;2022-07-17T12:27:53;31.10;99.90
871;DHT22;422;51.280;7.236;2022-07-17T12:30:22;29.90;99.90
871;DHT22;422;51.280;7.236;2022-07-17T12:32:54;30.90;99.90
871;DHT22;422;51.280;7.236;2022-07-17T12:35:21;30.90;99.90
871;DHT22;422;51.280;7.236;2022-07-17T12:37:51;30.90;99.90
871;DHT22;422;51.280;7.236;2022-07-17T12:40:23;29.20;99.90
871;DHT22;422;51.280;7.236;2022-07-17T12:42:54;29.50;99.90
871;DHT22;422;51.280;7.236;2022-07-17T12:45:25;29.50;99.90
871;DHT22;422;51.280;7.236;2022-07-17T12:47:54;29.40;99.90
871;DHT22;422;51.280;7.236;2022-07-17T12:50:22;30.40;99.90
871;DHT22;422;51.280;7.236;2022-07-17T12:52:49;30.20;99.90
871;DHT22;422;51.280;7.236;2022-07-17T12:55:16;28.90;99.90
871;DHT22;422;51.280;7.236;2022-07-17T12:57:47;30.10;99.90
871;DHT22;422;51.280;7.236;2022-07-17T13:00:18;30.90;99.90
871;DHT22;422;51.280;7.236;2022-07-17T13:02:45;31.60;99.90
871;DHT22;422;51.280;7.236;2022-07-17T13:05:14;30.60;99.90
871;DHT22;422;51.280;7.236;2022-07-17T13:07:42;30.00;99.90
871;DHT22;422;51.280;7.236;2022-07-17T13:10:09;30.80;99.90
871;DHT22;422;51.280;7.236;2022-07-17T13:12:42;31.50;99.90
871;DHT22;422;51.280;7.236;2022-07-17T13:15:11;31.90;99.90
871;DHT22;422;51.280;7.236;2022-07-17T13:17:40;31.70;99.90
871;DHT22;422;51.280;7.236;2022-07-17T13:20:13;31.20;99.90
871;DHT22;422;51.280;7.236;2022-07-17T13:22:41;31.10;99.90
871;DHT22;422;51.280;7.236;2022-07-17T13:25:09;31.50;99.90
871;DHT22;422;51.280;7.236;2022-07-17T13:27:36;31.60;99.90
871;DHT22;422;51.280;7.236;2022-07-17T13:30:04;31.20;99.90
871;DHT22;422;51.280;7.236;2022-07-17T13:32:37;30.60;99.90
871;DHT22;422;51.280;7.236;2022-07-17T13:35:10;30.90;99.90
871;DHT22;422;51.280;7.236;2022-07-17T13:37:43;31.60;99.90
871;DHT22;422;51.280;7.236;2022-07-17T13:40:12;31.30;99.90
871;DHT22;422;51.280;7.236;2022-07-17T13:42:40;29.60;99.90
871;DHT22;422;51.280;7.236;2022-07-17T13:45:08;29.10;99.90
871;DHT22;422;51.280;7.236;2022-07-17T13:47:38;29.40;99.90
871;DHT22;422;51.280;7.236;2022-07-17T13:50:08;30.00;99.90
871;DHT22;422;51.280;7.236;2022-07-17T13:52:36;29.20;99.90
871;DHT22;422;51.280;7.236;2022-07-17T13:55:06;29.00;99.90
871;DHT22;422;51.280;7.236;2022-07-17T13:57:34;29.10;99.90
871;DHT22;422;51.280;7.236;2022-07-17T14:00:01;29.40;99.90
871;DHT22;422;51.280;7.236;2022-07-17T14:49:38;30.60;99.90
871;DHT22;422;51.280;7.236;2022-07-17T14:52:07;30.60;99.90
871;DHT22;422;51.280;7.236;2022-07-17T14:54:41;30.50;99.90
871;DHT22;422;51.280;7.236;2022-07-17T14:57:09;30.40;99.90
871;DHT22;422;51.280;7.236;2022-07-17T14:59:37;30.10;99.90
871;DHT22;422;51.280;7.236;2022-07-17T15:02:05;30.10;99.90
871;DHT22;422;51.280;7.236;2022-07-17T15:04:35;30.10;99.90
871;DHT22;422;51.280;7.236;2022-07-17T15:07:04;30.60;99.90
871;DHT22;422;51.280;7.236;2022-07-17T15:09:31;30.50;99.90
871;DHT22;422;51.280;7.236;2022-07-17T15:12:02;29.60;99.90
871;DHT22;422;51.280;7.236;2022-07-17T15:14:41;28.90;99.90
871;DHT22;422;51.280;7.236;2022-07-17T15:17:11;29.60;99.90
871;DHT22;422;51.280;7.236;2022-07-17T15:19:38;28.90;99.90
871;DHT22;422;51.280;7.236;2022-07-17T15:22:14;29.10;99.90
871;DHT22;422;51.280;7.236;2022-07-17T15:24:42;29.70;99.90
871;DHT22;422;51.280;7.236;2022-07-17T15:27:12;29.00;99.90
871;DHT22;422;51.280;7.236;2022-07-17T15:29:39;29.00;99.90
871;DHT22;422;51.280;7.236;2022-07-17T15:32:07;28.90;99.90
871;DHT22;422;51.280;7.236;2022-07-17T15:34:35;28.80;99.90
871;DHT22;422;51.280;7.236;2022-07-17T15:37:04;28.50;99.90
871;DHT22;422;51.280;7.236;2022-07-17T15:39:33;28.70;99.90
871;DHT22;422;51.280;7.236;2022-07-17T15:42:00;29.10;99.90
871;DHT22;422;51.280;7.236;2022-07-17T15:44:29;28.80;99.90
871;DHT22;422;51.280;7.236;2022-07-17T15:46:57;28.90;99.90
871;DHT22;422;51.280;7.236;2022-07-17T15:49:24;29.40;99.90
871;DHT22;422;51.280;7.236;2022-07-17T15:51:54;29.40;99.90
871;DHT22;422;51.280;7.236;2022-07-17T15:54:23;29.80;99.90
871;DHT22;422;51.280;7.236;2022-07-17T15:56:59;29.60;99.90
871;DHT22;422;51.280;7.236;2022-07-17T15:59:34;29.50;99.90
871;DHT22;422;51.280;7.236;2022-07-17T16:02:06;29.70;99.90
871;DHT22;422;51.280;7.236;2022-07-17T16:04:36;29.50;99.90
871;DHT22;422;51.280;7.236;2022-07-17T16:07:03;29.30;99.90
871;DHT22;422;51.280;7.236;2022-07-17T16:09:30;29.70;99.90
871;DHT22;422;51.280;7.236;2022-07-17T16:12:11;29.90;99.90
871;DHT22;422;51.280;7.236;2022-07-17T16:14:40;29.70;99.90
871;DHT22;422;51.280;7.236;2022-07-17T16:17:07;29.20;99.90
871;DHT22;422;51.280;7.236;2022-07-17T16:19:34;29.40;99.90
871;DHT22;422;51.280;7.236;2022-07-17T16:22:03;29.60;99.90
871;DHT22;422;51.280;7.236;2022-07-17T16:24:32;29.40;99.90
871;DHT22;422;51.280;7.236;2022-07-17T16:27:02;29.30;99.90
871;DHT22;422;51.280;7.236;2022-07-17T16:29:33;29.70;99.90
871;DHT22;422;51.280;7.236;2022-07-17T16:32:01;30.00;99.90
871;DHT22;422;51.280;7.236;2022-07-17T16:34:31;30.00;99.90
871;DHT22;422;51.280;7.236;2022-07-17T16:37:11;30.10;99.90
871;DHT22;422;51.280;7.236;2022-07-17T16:39:38;30.00;99.90
871;DHT22;422;51.280;7.236;2022-07-17T16:42:06;29.80;99.90
871;DHT22;422;51.280;7.236;2022-07-17T16:44:34;29.70;99.90
871;DHT22;422;51.280;7.236;2022-07-17T16:47:02;29.30;99.90
871;DHT22;422;51.280;7.236;2022-07-17T16:49:29;29.10;99.90
871;DHT22;422;51.280;7.236;2022-07-17T16:51:56;29.00;99.90
871;DHT22;422;51.280;7.236;2022-07-17T16:54:23;29.00;99.90
871;DHT22;422;51.280;7.236;2022-07-17T16:56:51;29.00;99.90
871;DHT22;422;51.280;7.236;2022-07-17T16:59:18;29.10;99.90
871;DHT22;422;51.280;7.236;2022-07-17T17:01:49;29.10;99.90
871;DHT22;422;51.280;7.236;2022-07-17T17:04:17;28.50;99.90
871;DHT22;422;51.280;7.236;2022-07-17T17:06:44;28.70;99.90
871;DHT22;422;51.280;7.236;2022-07-17T17:09:12;28.90;99.90
871;DHT22;422;51.280;7.236;2022-07-17T17:11:40;28.80;99.90
871;DHT22;422;51.280;7.236;2022-07-17T17:14:08;28.90;99.90
871;DHT22;422;51.280;7.236;2022-07-17T17:16:51;28.70;99.90
871;DHT22;422;51.280;7.236;2022-07-17T17:19:19;27.90;99.90
871;DHT22;422;51.280;7.236;2022-07-17T17:21:49;27.10;99.90
871;DHT22;422;51.280;7.236;2022-07-17T17:24:19;27.00;99.90
871;DHT22;422;51.280;7.236;2022-07-17T17:26:49;27.10;99.90
871;DHT22;422;51.280;7.236;2022-07-17T17:29:19;27.30;99.90
871;DHT22;422;51.280;7.236;2022-07-17T17:31:48;27.60;99.90
871;DHT22;422;51.280;7.236;2022-07-17T17:34:15;27.40;99.90
871;DHT22;422;51.280;7.236;2022-07-17T17:36:43;27.50;99.90